createdAt,value
2022-12-24T00:00:50.946Z,12.1
2022-12-24T00:01:51.208Z,12.1
2022-12-24T00:02:51.564Z,12.1
2022-12-24T00:03:52.063Z,12.1
2022-12-24T00:05:01.038Z,12.1
2022-12-24T00:06:01.966Z,12.1
2022-12-24T00:07:02.134Z,12.1
2022-12-24T00:08:02.289Z,12.1
2022-12-24T00:09:02.439Z,12.1
2022-12-24T00:10:02.652Z,12.1
2022-12-24T00:11:02.817Z,12.1
2022-12-24T00:12:02.986Z,12.1
2022-12-24T00:13:03.159Z,12
2022-12-24T00:14:03.309Z,12
2022-12-24T00:15:03.473Z,12
2022-12-24T00:16:03.641Z,12
2022-12-24T00:17:03.930Z,12
2022-12-24T00:18:04.160Z,12
2022-12-24T00:19:04.313Z,12
2022-12-24T00:20:04.464Z,12
2022-12-24T00:21:04.607Z,12
2022-12-24T00:22:04.760Z,12
2022-12-24T00:23:04.954Z,11.9
2022-12-24T00:24:05.146Z,11.9
2022-12-24T00:25:05.464Z,11.9
2022-12-24T00:26:05.663Z,11.9
2022-12-24T00:27:05.991Z,11.9
2022-12-24T00:28:06.160Z,11.9
2022-12-24T00:29:06.300Z,11.9
2022-12-24T00:30:06.452Z,11.9
2022-12-24T00:31:06.776Z,11.9
2022-12-24T00:32:07.110Z,11.9
2022-12-24T00:33:07.269Z,11.8
2022-12-24T00:34:07.423Z,11.8
2022-12-24T00:35:07.577Z,11.8
2022-12-24T00:36:07.737Z,11.8
2022-12-24T00:37:07.938Z,11.8
2022-12-24T00:38:08.159Z,11.8
2022-12-24T00:39:08.338Z,11.8
2022-12-24T00:40:08.500Z,11.8
2022-12-24T00:41:08.659Z,11.8
2022-12-24T00:42:08.826Z,11.8
2022-12-24T00:43:09.021Z,11.7
2022-12-24T00:44:09.175Z,11.7
2022-12-24T00:45:09.331Z,11.7
2022-12-24T00:46:09.681Z,11.7
2022-12-24T00:47:12.467Z,11.7
2022-12-24T00:48:12.623Z,11.7
2022-12-24T00:49:12.766Z,11.7
2022-12-24T00:50:12.923Z,11.7
2022-12-24T00:51:13.209Z,11.7
2022-12-24T00:52:13.578Z,11.7
2022-12-24T00:53:13.744Z,11.6
2022-12-24T00:54:13.892Z,11.6
2022-12-24T00:55:14.140Z,11.6
2022-12-24T00:56:14.317Z,11.6
2022-12-24T00:57:14.470Z,11.6
2022-12-24T00:58:14.622Z,11.6
2022-12-24T00:59:14.765Z,11.6
2022-12-24T01:00:14.921Z,11.6
2022-12-24T01:01:15.407Z,11.6
2022-12-24T01:02:16.576Z,11.6
2022-12-24T01:03:17.324Z,11.5
2022-12-24T01:04:17.569Z,11.5
2022-12-24T01:05:17.743Z,11.5
2022-12-24T01:06:17.922Z,11.5
2022-12-24T01:07:18.074Z,11.5
2022-12-24T01:08:18.240Z,11.5
2022-12-24T01:09:18.400Z,11.5
2022-12-24T01:10:18.563Z,11.5
2022-12-24T01:11:18.762Z,11.5
2022-12-24T01:12:18.938Z,11.5
2022-12-24T01:13:19.089Z,11.5
2022-12-24T01:14:19.250Z,11.5
2022-12-24T01:15:19.440Z,11.5
2022-12-24T01:16:19.828Z,11.5
2022-12-24T01:17:20.222Z,11.5
2022-12-24T01:18:20.373Z,11.5
2022-12-24T01:19:20.519Z,11.5
2022-12-24T01:20:20.669Z,11.5
2022-12-24T01:21:20.859Z,11.5
2022-12-24T01:22:21.021Z,11.5
2022-12-24T01:23:21.186Z,11.4
2022-12-24T01:24:21.341Z,11.4
2022-12-24T01:25:21.489Z,11.4
2022-12-24T01:26:21.655Z,11.4
2022-12-24T01:27:21.815Z,11.4
2022-12-24T01:28:21.983Z,11.4
2022-12-24T01:29:22.147Z,11.4
2022-12-24T01:30:22.292Z,11.4
2022-12-24T01:31:22.596Z,11.4
2022-12-24T01:32:22.819Z,11.4
2022-12-24T01:33:23.011Z,11.3
2022-12-24T01:34:23.173Z,11.3
2022-12-24T01:35:23.322Z,11.3
2022-12-24T01:36:23.483Z,11.3
2022-12-24T01:37:23.711Z,11.3
2022-12-24T01:38:23.885Z,11.3
2022-12-24T01:39:24.067Z,11.3
2022-12-24T01:40:24.301Z,11.3
2022-12-24T01:41:24.513Z,11.3
2022-12-24T01:42:24.778Z,11.3
2022-12-24T01:43:25.144Z,11.3
2022-12-24T01:44:36.017Z,11.3
2022-12-24T01:45:37.602Z,11.3
2022-12-24T01:46:38.027Z,11.3
2022-12-24T01:47:38.271Z,11.3
2022-12-24T01:48:38.438Z,11.3
2022-12-24T01:49:38.599Z,11.3
2022-12-24T01:50:38.751Z,11.3
2022-12-24T01:51:38.904Z,11.3
2022-12-24T01:52:39.103Z,11.3
2022-12-24T01:53:39.300Z,11.3
2022-12-24T01:54:39.457Z,11.3
2022-12-24T01:55:39.607Z,11.3
2022-12-24T01:56:39.759Z,11.3
2022-12-24T01:57:39.914Z,11.3
2022-12-24T01:58:40.096Z,11.3
2022-12-24T01:59:40.258Z,11.3
2022-12-24T02:00:40.410Z,11.3
2022-12-24T02:01:40.828Z,11.3
2022-12-24T02:02:41.537Z,11.3
2022-12-24T02:03:42.097Z,11.3
2022-12-24T02:04:42.429Z,11.3
2022-12-24T02:05:42.589Z,11.3
2022-12-24T02:06:42.771Z,11.3
2022-12-24T02:07:42.930Z,11.3
2022-12-24T02:08:43.113Z,11.3
2022-12-24T02:09:43.274Z,11.3
2022-12-24T02:10:43.435Z,11.3
2022-12-24T02:11:43.572Z,11.3
2022-12-24T02:12:43.733Z,11.3
2022-12-24T02:13:43.917Z,11.3
2022-12-24T02:14:44.071Z,11.3
2022-12-24T02:15:44.311Z,11.3
2022-12-24T02:16:44.804Z,11.3
2022-12-24T02:17:45.211Z,11.3
2022-12-24T02:18:45.366Z,11.3
2022-12-24T02:19:45.549Z,11.3
2022-12-24T02:20:45.715Z,11.3
2022-12-24T02:21:45.870Z,11.3
2022-12-24T02:22:46.031Z,11.3
2022-12-24T02:23:46.192Z,11.3
2022-12-24T02:24:46.359Z,11.3
2022-12-24T02:25:46.548Z,11.3
2022-12-24T02:26:46.753Z,11.3
2022-12-24T02:27:46.900Z,11.3
2022-12-24T02:28:47.064Z,11.3
2022-12-24T02:29:47.275Z,11.3
2022-12-24T02:30:47.440Z,11.3
2022-12-24T02:31:47.806Z,11.3
2022-12-24T02:32:48.091Z,11.3
2022-12-24T02:33:48.245Z,11.2
2022-12-24T02:34:48.409Z,11.2
2022-12-24T02:35:48.574Z,11.2
2022-12-24T02:36:48.731Z,11.2
2022-12-24T02:37:48.891Z,11.2
2022-12-24T02:38:49.076Z,11.2
2022-12-24T02:39:49.239Z,11.2
2022-12-24T02:40:49.416Z,11.2
2022-12-24T02:41:49.590Z,11.2
2022-12-24T02:42:49.754Z,11.2
2022-12-24T02:43:49.924Z,11.2
2022-12-24T02:44:50.073Z,11.2
2022-12-24T02:45:59.121Z,11.2
2022-12-24T02:46:59.998Z,11.2
2022-12-24T02:48:00.400Z,11.2
2022-12-24T02:49:00.576Z,11.2
2022-12-24T02:50:00.790Z,11.2
2022-12-24T02:51:01.001Z,11.2
2022-12-24T02:52:01.175Z,11.2
2022-12-24T02:53:01.344Z,11.2
2022-12-24T02:54:01.514Z,11.2
2022-12-24T02:55:01.673Z,11.2
2022-12-24T02:56:01.829Z,11.2
2022-12-24T02:57:01.988Z,11.2
2022-12-24T02:58:02.145Z,11.2
2022-12-24T02:59:02.296Z,11.2
2022-12-24T03:00:02.457Z,11.2
2022-12-24T03:01:03.031Z,11.2
2022-12-24T03:02:03.625Z,11.2
2022-12-24T03:03:04.145Z,11.2
2022-12-24T03:04:04.451Z,11.2
2022-12-24T03:05:04.651Z,11.2
2022-12-24T03:06:04.852Z,11.2
2022-12-24T03:07:05.051Z,11.2
2022-12-24T03:08:05.215Z,11.2
2022-12-24T03:09:05.362Z,11.2
2022-12-24T03:10:05.512Z,11.2
2022-12-24T03:11:05.779Z,11.2
2022-12-24T03:12:06.105Z,11.2
2022-12-24T03:13:06.282Z,11.1
2022-12-24T03:14:06.459Z,11.1
2022-12-24T03:15:06.614Z,11.1
2022-12-24T03:16:06.886Z,11.1
2022-12-24T03:17:07.158Z,11.1
2022-12-24T03:18:07.313Z,11.1
2022-12-24T03:19:07.497Z,11.1
2022-12-24T03:20:07.647Z,11.1
2022-12-24T03:21:07.802Z,11.1
2022-12-24T03:22:07.960Z,11.1
2022-12-24T03:23:08.140Z,11.1
2022-12-24T03:24:08.320Z,11.1
2022-12-24T03:25:08.477Z,11.1
2022-12-24T03:26:08.686Z,11.1
2022-12-24T03:27:08.878Z,11.1
2022-12-24T03:28:09.062Z,11.1
2022-12-24T03:29:09.209Z,11.1
2022-12-24T03:30:09.370Z,11.1
2022-12-24T03:31:09.579Z,11.1
2022-12-24T03:32:09.837Z,11.1
2022-12-24T03:33:09.991Z,11.1
2022-12-24T03:34:10.153Z,11.1
2022-12-24T03:35:10.317Z,11.1
2022-12-24T03:36:10.496Z,11.1
2022-12-24T03:37:10.660Z,11.1
2022-12-24T03:38:10.815Z,11.1
2022-12-24T03:39:10.992Z,11.1
2022-12-24T03:40:11.157Z,11.1
2022-12-24T03:41:11.351Z,11.1
2022-12-24T03:42:11.507Z,11.1
2022-12-24T03:43:11.685Z,11
2022-12-24T03:44:11.861Z,11
2022-12-24T03:45:12.015Z,11
2022-12-24T03:46:12.268Z,11
2022-12-24T03:47:12.572Z,11
2022-12-24T03:48:12.734Z,11
2022-12-24T03:49:12.927Z,11
2022-12-24T03:50:13.084Z,11
2022-12-24T03:51:13.230Z,11
2022-12-24T03:52:13.379Z,11
2022-12-24T03:53:13.572Z,10.9
2022-12-24T03:54:13.726Z,10.9
2022-12-24T03:55:13.876Z,10.9
2022-12-24T03:56:14.027Z,10.9
2022-12-24T03:57:14.199Z,10.9
2022-12-24T03:58:14.359Z,10.9
2022-12-24T03:59:14.509Z,10.9
2022-12-24T04:00:14.667Z,10.9
2022-12-24T04:01:15.124Z,10.9
2022-12-24T04:02:16.115Z,10.9
2022-12-24T04:03:16.829Z,10.9
2022-12-24T04:04:17.128Z,10.9
2022-12-24T04:05:17.276Z,10.9
2022-12-24T04:06:17.431Z,10.9
2022-12-24T04:07:17.597Z,10.9
2022-12-24T04:08:17.745Z,10.9
2022-12-24T04:09:17.917Z,10.9
2022-12-24T04:10:18.104Z,10.9
2022-12-24T04:11:18.275Z,10.9
2022-12-24T04:12:18.454Z,10.9
2022-12-24T04:13:18.601Z,10.8
2022-12-24T04:14:18.758Z,10.8
2022-12-24T04:15:18.922Z,10.8
2022-12-24T04:16:19.151Z,10.8
2022-12-24T04:17:19.412Z,10.8
2022-12-24T04:18:19.569Z,10.8
2022-12-24T04:19:19.759Z,10.8
2022-12-24T04:20:19.929Z,10.8
2022-12-24T04:21:20.081Z,10.8
2022-12-24T04:22:20.256Z,10.8
2022-12-24T04:23:20.412Z,10.8
2022-12-24T04:24:20.568Z,10.8
2022-12-24T04:25:20.724Z,10.8
2022-12-24T04:26:20.912Z,10.8
2022-12-24T04:27:30.266Z,10.8
2022-12-24T04:28:31.043Z,10.7
2022-12-24T04:29:31.200Z,10.7
2022-12-24T04:30:31.356Z,10.7
2022-12-24T04:31:31.649Z,10.7
2022-12-24T04:32:31.852Z,10.7
2022-12-24T04:33:32.016Z,10.7
2022-12-24T04:34:32.178Z,10.7
2022-12-24T04:35:32.328Z,10.7
2022-12-24T04:36:32.480Z,10.7
2022-12-24T04:37:32.636Z,10.7
2022-12-24T04:38:32.796Z,10.7
2022-12-24T04:39:33.012Z,10.7
2022-12-24T04:40:33.244Z,10.7
2022-12-24T04:41:33.413Z,10.7
2022-12-24T04:42:33.574Z,10.7
2022-12-24T04:43:33.748Z,10.5
2022-12-24T04:44:33.911Z,10.5
2022-12-24T04:45:34.174Z,10.5
2022-12-24T04:46:34.485Z,10.5
2022-12-24T04:47:34.634Z,10.5
2022-12-24T04:48:34.783Z,10.5
2022-12-24T04:49:34.934Z,10.5
2022-12-24T04:50:35.100Z,10.5
2022-12-24T04:51:35.290Z,10.5
2022-12-24T04:52:35.463Z,10.5
2022-12-24T04:53:35.646Z,10.4
2022-12-24T04:54:35.791Z,10.4
2022-12-24T04:55:35.944Z,10.4
2022-12-24T04:56:36.102Z,10.4
2022-12-24T04:57:36.253Z,10.4
2022-12-24T04:58:36.432Z,10.4
2022-12-24T04:59:36.716Z,10.4
2022-12-24T05:00:36.993Z,10.4
2022-12-24T05:01:37.406Z,10.4
2022-12-24T05:02:38.199Z,10.4
2022-12-24T05:03:38.869Z,10.3
2022-12-24T05:04:39.027Z,10.3
2022-12-24T05:05:39.189Z,10.3
2022-12-24T05:06:39.346Z,10.3
2022-12-24T05:07:39.522Z,10.3
2022-12-24T05:08:39.693Z,10.3
2022-12-24T05:09:39.859Z,10.3
2022-12-24T05:10:40.007Z,10.3
2022-12-24T05:11:40.158Z,10.3
2022-12-24T05:12:40.324Z,10.3
2022-12-24T05:13:47.762Z,10.2
2022-12-24T05:14:48.528Z,10.2
2022-12-24T05:15:48.732Z,10.2
2022-12-24T05:16:49.036Z,10.2
2022-12-24T05:17:49.362Z,10.2
2022-12-24T05:18:49.534Z,10.2
2022-12-24T05:19:49.683Z,10.2
2022-12-24T05:20:49.839Z,10.2
2022-12-24T05:21:49.987Z,10.2
2022-12-24T05:22:50.140Z,10.2
2022-12-24T05:23:50.303Z,10.2
2022-12-24T05:24:50.454Z,10.2
2022-12-24T05:25:50.614Z,10.2
2022-12-24T05:26:50.764Z,10.2
2022-12-24T05:27:51.744Z,10.2
2022-12-24T05:28:51.910Z,10.2
2022-12-24T05:29:52.073Z,10.2
2022-12-24T05:30:52.377Z,10.2
2022-12-24T05:31:52.725Z,10.2
2022-12-24T05:32:52.904Z,10.2
2022-12-24T05:33:53.059Z,10.2
2022-12-24T05:34:53.217Z,10.2
2022-12-24T05:35:53.376Z,10.2
2022-12-24T05:36:53.528Z,10.2
2022-12-24T05:37:53.707Z,10.2
2022-12-24T05:38:53.870Z,10.2
2022-12-24T05:39:54.027Z,10.2
2022-12-24T05:40:54.186Z,10.2
2022-12-24T05:41:54.340Z,10.2
2022-12-24T05:42:54.486Z,10.2
2022-12-24T05:43:54.643Z,10.2
2022-12-24T05:44:54.782Z,10.2
2022-12-24T05:45:55.031Z,10.2
2022-12-24T05:46:55.237Z,10.2
2022-12-24T05:47:55.415Z,10.2
2022-12-24T05:48:55.576Z,10.2
2022-12-24T05:49:55.734Z,10.2
2022-12-24T05:50:55.895Z,10.2
2022-12-24T05:51:56.046Z,10.2
2022-12-24T05:52:56.202Z,10.1
2022-12-24T05:53:56.369Z,10.1
2022-12-24T05:54:56.531Z,10.1
2022-12-24T05:55:56.680Z,10.1
2022-12-24T05:56:56.850Z,10.1
2022-12-24T05:57:56.995Z,10.1
2022-12-24T05:58:57.160Z,10.1
2022-12-24T05:59:57.320Z,10.1
2022-12-24T06:00:57.484Z,10.1
2022-12-24T06:01:57.865Z,10.1
2022-12-24T06:02:58.591Z,9.89
2022-12-24T06:03:58.965Z,9.89
2022-12-24T06:04:59.386Z,9.89
2022-12-24T06:05:59.659Z,9.89
2022-12-24T06:06:59.832Z,9.89
2022-12-24T06:08:00.009Z,9.89
2022-12-24T06:09:00.189Z,9.89
2022-12-24T06:10:00.364Z,9.89
2022-12-24T06:11:00.536Z,9.89
2022-12-24T06:12:00.689Z,9.89
2022-12-24T06:13:00.859Z,9.7
2022-12-24T06:14:01.023Z,9.7
2022-12-24T06:15:01.190Z,9.7
2022-12-24T06:16:01.500Z,9.7
2022-12-24T06:17:01.776Z,9.7
2022-12-24T06:18:01.936Z,9.7
2022-12-24T06:19:02.172Z,9.7
2022-12-24T06:20:02.366Z,9.7
2022-12-24T06:21:02.563Z,9.7
2022-12-24T06:22:02.747Z,9.7
2022-12-24T06:23:02.895Z,9.3
2022-12-24T06:24:03.053Z,9.3
2022-12-24T06:25:03.273Z,9.3
2022-12-24T06:26:03.460Z,9.3
2022-12-24T06:27:03.621Z,9.3
2022-12-24T06:28:03.831Z,9.3
2022-12-24T06:29:04.003Z,9.3
2022-12-24T06:30:04.185Z,9.3
2022-12-24T06:31:04.485Z,9.3
2022-12-24T06:32:04.787Z,9.3
2022-12-24T06:33:04.963Z,9
2022-12-24T06:34:05.132Z,9
2022-12-24T06:35:05.290Z,9
2022-12-24T06:36:05.439Z,9
2022-12-24T06:37:05.599Z,9
2022-12-24T06:38:05.757Z,9
2022-12-24T06:39:05.917Z,9
2022-12-24T06:40:06.068Z,9
2022-12-24T06:41:06.223Z,9
2022-12-24T06:42:06.386Z,9
2022-12-24T06:43:06.541Z,8.7
2022-12-24T06:44:06.682Z,8.7
2022-12-24T06:45:08.950Z,8.7
2022-12-24T06:46:09.251Z,8.7
2022-12-24T06:47:09.492Z,8.7
2022-12-24T06:48:09.658Z,8.7
2022-12-24T06:49:09.814Z,8.7
2022-12-24T06:50:09.969Z,8.7
2022-12-24T06:51:10.136Z,8.7
2022-12-24T06:52:10.315Z,8.7
2022-12-24T06:53:10.575Z,8.6
2022-12-24T06:54:10.799Z,8.6
2022-12-24T06:55:10.954Z,8.6
2022-12-24T06:56:11.133Z,8.6
2022-12-24T06:57:11.318Z,8.6
2022-12-24T06:58:11.472Z,8.6
2022-12-24T06:59:11.628Z,8.6
2022-12-24T07:00:11.783Z,8.6
2022-12-24T07:01:12.450Z,8.6
2022-12-24T07:02:13.131Z,8.6
2022-12-24T07:03:13.603Z,8.5
2022-12-24T07:04:20.783Z,8.5
2022-12-24T07:05:21.136Z,8.5
2022-12-24T07:06:21.337Z,8.5
2022-12-24T07:07:21.562Z,8.5
2022-12-24T07:08:21.722Z,8.5
2022-12-24T07:09:21.888Z,8.5
2022-12-24T07:10:22.089Z,8.5
2022-12-24T07:11:22.258Z,8.5
2022-12-24T07:12:22.491Z,8.5
2022-12-24T07:13:22.662Z,8.39
2022-12-24T07:14:22.866Z,8.39
2022-12-24T07:15:23.029Z,8.39
2022-12-24T07:16:23.524Z,8.39
2022-12-24T07:17:24.280Z,8.39
2022-12-24T07:18:24.702Z,8.39
2022-12-24T07:19:24.853Z,8.39
2022-12-24T07:20:25.006Z,8.39
2022-12-24T07:21:25.170Z,8.39
2022-12-24T07:22:25.338Z,8.39
2022-12-24T07:23:25.506Z,8.3
2022-12-24T07:24:25.708Z,8.3
2022-12-24T07:25:25.864Z,8.3
2022-12-24T07:26:26.017Z,8.3
2022-12-24T07:27:26.210Z,8.3
2022-12-24T07:28:28.464Z,8.3
2022-12-24T07:29:28.634Z,8.3
2022-12-24T07:30:28.916Z,8.3
2022-12-24T07:31:29.340Z,8.3
2022-12-24T07:32:29.640Z,8.3
2022-12-24T07:33:29.798Z,8.2
2022-12-24T07:34:29.957Z,8.2
2022-12-24T07:35:30.113Z,8.2
2022-12-24T07:36:30.291Z,8.2
2022-12-24T07:37:30.472Z,8.2
2022-12-24T07:38:30.660Z,8.2
2022-12-24T07:39:30.853Z,8.2
2022-12-24T07:40:31.004Z,8.2
2022-12-24T07:41:39.775Z,8.2
2022-12-24T07:42:42.189Z,8.1
2022-12-24T07:43:42.382Z,8.1
2022-12-24T07:44:42.559Z,8.1
2022-12-24T07:45:42.715Z,8.1
2022-12-24T07:46:43.167Z,8.1
2022-12-24T07:47:43.539Z,8.1
2022-12-24T07:48:43.722Z,8.1
2022-12-24T07:49:43.876Z,8.1
2022-12-24T07:50:44.050Z,8.1
2022-12-24T07:51:44.209Z,8.1
2022-12-24T07:52:44.384Z,8.1
2022-12-24T07:53:44.555Z,8
2022-12-24T07:54:44.722Z,8
2022-12-24T07:55:44.884Z,8
2022-12-24T07:56:45.028Z,8
2022-12-24T07:57:45.188Z,8
2022-12-24T07:58:45.353Z,8
2022-12-24T07:59:45.517Z,8
2022-12-24T08:00:45.729Z,8
2022-12-24T08:01:46.438Z,8
2022-12-24T08:02:47.457Z,8
2022-12-24T08:03:48.239Z,8
2022-12-24T08:04:48.760Z,8
2022-12-24T08:05:48.965Z,8
2022-12-24T08:06:49.158Z,8
2022-12-24T08:07:49.328Z,8
2022-12-24T08:08:49.759Z,8
2022-12-24T08:09:49.954Z,8
2022-12-24T08:10:50.129Z,8
2022-12-24T08:11:52.767Z,8
2022-12-24T08:12:52.966Z,7.9
2022-12-24T08:13:53.113Z,7.9
2022-12-24T08:14:53.273Z,7.9
2022-12-24T08:15:53.562Z,7.9
2022-12-24T08:16:54.074Z,7.9
2022-12-24T08:17:54.289Z,7.9
2022-12-24T08:18:54.455Z,7.9
2022-12-24T08:19:54.611Z,7.9
2022-12-24T08:20:54.782Z,7.9
2022-12-24T08:21:54.935Z,7.9
2022-12-24T08:22:55.092Z,7.8
2022-12-24T08:23:55.243Z,7.8
2022-12-24T08:24:55.454Z,7.8
2022-12-24T08:25:55.636Z,7.8
2022-12-24T08:26:55.836Z,7.8
2022-12-24T08:27:56.007Z,7.8
2022-12-24T08:28:56.157Z,7.8
2022-12-24T08:29:56.314Z,7.8
2022-12-24T08:30:56.459Z,7.8
2022-12-24T08:31:56.785Z,7.8
2022-12-24T08:32:57.120Z,7.9
2022-12-24T08:33:57.331Z,7.9
2022-12-24T08:34:57.502Z,7.9
2022-12-24T08:35:57.739Z,7.9
2022-12-24T08:36:57.906Z,7.9
2022-12-24T08:37:58.076Z,7.9
2022-12-24T08:38:58.264Z,7.9
2022-12-24T08:39:58.426Z,7.9
2022-12-24T08:40:58.599Z,7.9
2022-12-24T08:41:58.975Z,7.9
2022-12-24T08:42:59.496Z,7.9
2022-12-24T08:43:59.748Z,7.9
2022-12-24T08:44:59.932Z,7.9
2022-12-24T08:46:00.224Z,7.9
2022-12-24T08:47:00.458Z,7.9
2022-12-24T08:48:00.634Z,7.9
2022-12-24T08:49:00.795Z,7.9
2022-12-24T08:50:01.026Z,7.9
2022-12-24T08:51:01.200Z,7.9
2022-12-24T08:52:01.349Z,7.9
2022-12-24T08:53:01.531Z,7.9
2022-12-24T08:54:01.689Z,7.9
2022-12-24T08:55:01.854Z,7.9
2022-12-24T08:56:02.030Z,7.9
2022-12-24T08:57:02.191Z,7.9
2022-12-24T08:58:02.359Z,7.9
2022-12-24T08:59:02.529Z,7.9
2022-12-24T09:00:02.703Z,7.9
2022-12-24T09:01:03.119Z,7.9
2022-12-24T09:02:03.874Z,7.9
2022-12-24T09:03:04.518Z,7.9
2022-12-24T09:04:04.822Z,7.9
2022-12-24T09:05:04.984Z,7.9
2022-12-24T09:06:05.149Z,7.9
2022-12-24T09:07:05.299Z,7.9
2022-12-24T09:08:05.450Z,7.9
2022-12-24T09:09:05.599Z,7.9
2022-12-24T09:10:05.755Z,7.9
2022-12-24T09:11:05.920Z,7.9
2022-12-24T09:12:06.150Z,7.9
2022-12-24T09:13:06.340Z,8
2022-12-24T09:14:06.560Z,8
2022-12-24T09:15:06.736Z,8
2022-12-24T09:16:07.038Z,8
2022-12-24T09:17:07.382Z,8
2022-12-24T09:18:07.678Z,8
2022-12-24T09:19:07.830Z,8
2022-12-24T09:20:07.973Z,8
2022-12-24T09:21:08.132Z,8
2022-12-24T09:22:08.284Z,8
2022-12-24T09:23:08.440Z,8
2022-12-24T09:24:08.603Z,8
2022-12-24T09:25:08.781Z,8
2022-12-24T09:26:08.977Z,8
2022-12-24T09:27:09.160Z,8
2022-12-24T09:28:09.331Z,8
2022-12-24T09:29:09.479Z,8
2022-12-24T09:30:09.650Z,8
2022-12-24T09:31:09.807Z,8
2022-12-24T09:32:10.199Z,8
2022-12-24T09:33:10.537Z,8
2022-12-24T09:34:10.690Z,8
2022-12-24T09:35:10.867Z,8
2022-12-24T09:36:11.041Z,8
2022-12-24T09:37:11.246Z,8
2022-12-24T09:38:11.417Z,8
2022-12-24T09:39:11.580Z,8
2022-12-24T09:40:11.773Z,8
2022-12-24T09:41:11.921Z,8
2022-12-24T09:42:12.076Z,8
2022-12-24T09:43:12.228Z,8.1
2022-12-24T09:44:12.373Z,8.1
2022-12-24T09:45:12.534Z,8.1
2022-12-24T09:46:12.871Z,8.1
2022-12-24T09:47:13.113Z,8.1
2022-12-24T09:48:13.303Z,8.1
2022-12-24T09:49:13.481Z,8.1
2022-12-24T09:50:13.630Z,8.1
2022-12-24T09:51:13.780Z,8.1
2022-12-24T09:52:13.933Z,8.1
2022-12-24T09:53:14.088Z,8.1
2022-12-24T09:54:14.263Z,8.1
2022-12-24T09:55:14.440Z,8.1
2022-12-24T09:56:14.589Z,8.1
2022-12-24T09:57:14.782Z,8.1
2022-12-24T09:58:14.945Z,8.1
2022-12-24T09:59:15.095Z,8.1
2022-12-24T10:00:15.258Z,8.1
2022-12-24T10:01:15.795Z,8.1
2022-12-24T10:02:16.650Z,8.1
2022-12-24T10:03:17.217Z,8
2022-12-24T10:04:17.532Z,8
2022-12-24T10:05:17.728Z,8
2022-12-24T10:06:25.093Z,8
2022-12-24T10:07:29.812Z,8
2022-12-24T10:08:29.988Z,8
2022-12-24T10:09:30.131Z,8
2022-12-24T10:10:30.292Z,8
2022-12-24T10:11:30.444Z,8
2022-12-24T10:12:30.599Z,8
2022-12-24T10:13:30.752Z,8
2022-12-24T10:14:30.911Z,8
2022-12-24T10:15:31.087Z,8
2022-12-24T10:16:31.381Z,8
2022-12-24T10:17:31.587Z,8
2022-12-24T10:18:31.752Z,8
2022-12-24T10:19:31.908Z,8
2022-12-24T10:20:32.058Z,8
2022-12-24T10:21:32.220Z,8
2022-12-24T10:22:32.384Z,8
2022-12-24T10:23:32.540Z,8
2022-12-24T10:24:32.695Z,8
2022-12-24T10:25:32.847Z,8
2022-12-24T10:26:33.016Z,8
2022-12-24T10:27:33.170Z,8
2022-12-24T10:28:33.332Z,8
2022-12-24T10:29:33.480Z,8
2022-12-24T10:30:33.743Z,8
2022-12-24T10:31:33.987Z,8
2022-12-24T10:32:34.179Z,8
2022-12-24T10:33:34.339Z,8
2022-12-24T10:34:34.501Z,8
2022-12-24T10:35:34.694Z,8
2022-12-24T10:36:34.863Z,8
2022-12-24T10:37:35.017Z,8
2022-12-24T10:38:35.170Z,8
2022-12-24T10:39:35.320Z,8
2022-12-24T10:40:35.496Z,8
2022-12-24T10:41:35.727Z,8
2022-12-24T10:42:35.896Z,8
2022-12-24T10:43:36.049Z,8.1
2022-12-24T10:44:36.204Z,8.1
2022-12-24T10:45:36.369Z,8.1
2022-12-24T10:46:36.747Z,8.1
2022-12-24T10:47:37.020Z,8.1
2022-12-24T10:48:37.260Z,8.1
2022-12-24T10:49:37.451Z,8.1
2022-12-24T10:50:37.629Z,8.1
2022-12-24T10:51:37.783Z,8.1
2022-12-24T10:52:38.061Z,8.1
2022-12-24T10:53:38.526Z,8.2
2022-12-24T10:54:39.330Z,8.2
2022-12-24T10:55:39.755Z,8.2
2022-12-24T10:56:39.918Z,8.2
2022-12-24T10:57:40.067Z,8.2
2022-12-24T10:58:40.232Z,8.2
2022-12-24T10:59:40.380Z,8.2
2022-12-24T11:00:40.539Z,8.2
2022-12-24T11:01:40.915Z,8.2
2022-12-24T11:02:41.555Z,8.2
2022-12-24T11:03:42.270Z,8.39
2022-12-24T11:04:42.640Z,8.39
2022-12-24T11:05:42.787Z,8.39
2022-12-24T11:06:49.501Z,8.39
2022-12-24T11:07:49.750Z,8.5
2022-12-24T11:08:49.907Z,8.5
2022-12-24T11:09:50.061Z,8.5
2022-12-24T11:10:50.220Z,8.5
2022-12-24T11:11:50.386Z,8.5
2022-12-24T11:13:37.193Z,8.6
2022-12-24T11:14:39.188Z,8.6
2022-12-24T11:15:39.387Z,8.6
2022-12-24T11:16:39.572Z,8.6
2022-12-24T11:17:39.729Z,8.6
2022-12-24T11:18:50.380Z,8.6
2022-12-24T11:19:52.376Z,8.7
2022-12-24T11:20:52.577Z,8.7
2022-12-24T11:21:52.731Z,8.7
2022-12-24T11:22:52.893Z,8.8
2022-12-24T11:23:53.083Z,8.8
2022-12-24T11:24:54.015Z,8.8
2022-12-24T11:25:54.176Z,8.8
2022-12-24T11:26:54.348Z,8.8
2022-12-24T11:27:54.516Z,8.8
2022-12-24T11:28:54.673Z,8.8
2022-12-24T11:30:00.256Z,8.8
2022-12-24T11:31:01.388Z,9
2022-12-24T11:32:01.631Z,9
2022-12-24T11:33:01.788Z,9
2022-12-24T11:34:01.987Z,9
2022-12-24T11:35:02.176Z,9
2022-12-24T11:36:02.435Z,9
2022-12-24T11:37:02.587Z,9
2022-12-24T11:38:02.736Z,9
2022-12-24T11:39:02.900Z,9
2022-12-24T11:40:03.079Z,9
2022-12-24T11:41:03.253Z,9
2022-12-24T11:42:03.418Z,9
2022-12-24T11:43:03.564Z,9.2
2022-12-24T11:44:03.903Z,9.2
2022-12-24T11:45:04.147Z,9.2
2022-12-24T11:46:04.370Z,9.2
2022-12-24T11:47:04.564Z,9.2
2022-12-24T11:48:04.713Z,9.2
2022-12-24T11:49:08.633Z,9.2
2022-12-24T11:50:18.960Z,9.3
2022-12-24T11:51:19.219Z,9.3
2022-12-24T11:52:19.387Z,9.3
2022-12-24T11:53:19.554Z,9.3
2022-12-24T11:54:19.724Z,9.3
2022-12-24T11:55:19.899Z,9.3
2022-12-24T11:56:20.040Z,9.3
2022-12-24T11:57:20.194Z,9.3
2022-12-24T11:58:20.354Z,9.3
2022-12-24T11:59:20.531Z,9.3
2022-12-24T12:00:20.737Z,9.3
2022-12-24T12:01:20.981Z,9.3
2022-12-24T12:02:21.394Z,9.3
2022-12-24T12:03:21.749Z,9.3
2022-12-24T12:04:22.240Z,9.3
2022-12-24T12:05:22.568Z,9.3
2022-12-24T12:06:22.716Z,9.3
2022-12-24T12:07:22.889Z,9.3
2022-12-24T12:08:23.057Z,9.3
2022-12-24T12:09:23.209Z,9.3
2022-12-24T12:10:23.399Z,9.3
2022-12-24T12:11:23.559Z,9.3
2022-12-24T12:12:23.727Z,9.3
2022-12-24T12:13:23.874Z,9.2
2022-12-24T12:14:24.025Z,9.2
2022-12-24T12:15:24.170Z,9.2
2022-12-24T12:16:24.556Z,9.2
2022-12-24T12:17:24.801Z,9.2
2022-12-24T12:18:24.957Z,9.2
2022-12-24T12:19:25.126Z,9.2
2022-12-24T12:20:25.348Z,9.2
2022-12-24T12:21:25.633Z,9.2
2022-12-24T12:22:25.793Z,9.2
2022-12-24T12:23:25.959Z,9
2022-12-24T12:24:32.642Z,9
2022-12-24T12:25:32.909Z,8.89
2022-12-24T12:26:33.060Z,8.89
2022-12-24T12:27:33.220Z,8.89
2022-12-24T12:28:33.366Z,8.89
2022-12-24T12:29:33.551Z,8.89
2022-12-24T12:30:33.789Z,8.89
2022-12-24T12:31:34.223Z,8.89
2022-12-24T12:32:34.700Z,8.89
2022-12-24T12:33:34.911Z,8.7
2022-12-24T12:34:35.092Z,8.7
2022-12-24T12:35:35.284Z,8.7
2022-12-24T12:36:35.453Z,8.7
2022-12-24T12:37:35.654Z,8.7
2022-12-24T12:38:35.825Z,8.7
2022-12-24T12:39:35.994Z,8.7
2022-12-24T12:40:36.150Z,8.7
2022-12-24T12:41:36.307Z,8.7
2022-12-24T12:42:36.459Z,8.7
2022-12-24T12:43:36.606Z,8.5
2022-12-24T12:44:36.763Z,8.5
2022-12-24T12:45:36.921Z,8.5
2022-12-24T12:46:37.225Z,8.5
2022-12-24T12:47:37.475Z,8.5
2022-12-24T12:48:37.647Z,8.5
2022-12-24T12:49:37.800Z,8.5
2022-12-24T12:50:37.937Z,8.5
2022-12-24T12:51:38.085Z,8.5
2022-12-24T12:52:38.238Z,8.5
2022-12-24T12:53:38.397Z,8.3
2022-12-24T12:54:38.569Z,8.3
2022-12-24T12:55:38.782Z,8.3
2022-12-24T12:56:38.940Z,8.3
2022-12-24T12:57:39.116Z,8.3
2022-12-24T12:58:39.264Z,8.3
2022-12-24T12:59:39.423Z,8.3
2022-12-24T13:00:39.752Z,8.3
2022-12-24T13:01:40.449Z,8.3
2022-12-24T13:02:41.276Z,8.3
2022-12-24T13:03:41.583Z,8.1
2022-12-24T13:04:41.738Z,8.1
2022-12-24T13:05:41.903Z,8.1
2022-12-24T13:06:42.123Z,8.1
2022-12-24T13:07:42.269Z,8.1
2022-12-24T13:08:42.427Z,8.1
2022-12-24T13:09:42.593Z,8.1
2022-12-24T13:10:42.756Z,8.1
2022-12-24T13:11:42.905Z,8.1
2022-12-24T13:12:43.056Z,8.1
2022-12-24T13:13:43.247Z,7.9
2022-12-24T13:14:43.409Z,7.9
2022-12-24T13:15:43.577Z,7.9
2022-12-24T13:16:43.867Z,7.9
2022-12-24T13:17:44.120Z,7.9
2022-12-24T13:18:44.322Z,7.9
2022-12-24T13:19:44.478Z,7.9
2022-12-24T13:20:44.630Z,7.9
2022-12-24T13:21:44.782Z,7.9
2022-12-24T13:22:44.952Z,7.9
2022-12-24T13:23:45.110Z,7.8
2022-12-24T13:24:52.427Z,7.8
2022-12-24T13:25:52.920Z,7.7
2022-12-24T13:26:53.075Z,7.7
2022-12-24T13:27:53.227Z,7.7
2022-12-24T13:28:53.372Z,7.7
2022-12-24T13:29:53.517Z,7.7
2022-12-24T13:30:53.678Z,7.7
2022-12-24T13:31:53.944Z,7.7
2022-12-24T13:32:54.270Z,7.6
2022-12-24T13:33:54.577Z,7.6
2022-12-24T13:34:54.854Z,7.6
2022-12-24T13:35:55.003Z,7.6
2022-12-24T13:36:55.143Z,7.6
2022-12-24T13:37:55.302Z,7.6
2022-12-24T13:38:55.457Z,7.6
2022-12-24T13:39:55.618Z,7.6
2022-12-24T13:40:55.772Z,7.6
2022-12-24T13:41:55.925Z,7.6
2022-12-24T13:42:56.088Z,7.6
2022-12-24T13:43:56.234Z,7.6
2022-12-24T13:44:56.390Z,7.6
2022-12-24T13:45:56.681Z,7.6
2022-12-24T13:46:56.905Z,7.6
2022-12-24T13:47:57.052Z,7.6